createdAt,value
2023-11-05T00:02:47.120Z,98211.09
2023-11-05T00:05:50.500Z,98208.44
2023-11-05T00:08:53.083Z,98198.88
2023-11-05T00:11:56.198Z,98182.41
2023-11-05T00:14:59.037Z,98180.66
2023-11-05T00:18:05.481Z,98188.56
2023-11-05T00:21:08.256Z,98191.12
2023-11-05T00:24:11.725Z,98192.94
2023-11-05T00:27:14.356Z,98189.50
2023-11-05T00:30:18.079Z,98193.78
2023-11-05T00:33:21.045Z,98193.78
2023-11-05T00:36:25.626Z,98196.47
2023-11-05T00:39:28.244Z,98198.16
2023-11-05T00:42:31.470Z,98205.09
2023-11-05T00:45:34.956Z,98190.31
2023-11-05T00:48:38.283Z,98195.50
2023-11-05T00:51:40.882Z,98200.69
2023-11-05T00:54:44.782Z,98196.34
2023-11-05T00:57:47.259Z,98193.75
2023-11-05T01:00:50.462Z,98195.47
2023-11-05T01:03:58.937Z,98192.94
2023-11-05T01:07:02.348Z,98208.59
2023-11-05T01:10:05.677Z,98197.34
2023-11-05T01:13:08.886Z,98185.19
2023-11-05T01:16:11.620Z,98189.50
2023-11-05T01:19:14.778Z,98187.84
2023-11-05T01:22:17.363Z,98180.00
2023-11-05T01:25:20.728Z,98184.31
2023-11-05T01:28:23.233Z,98180.81
2023-11-05T01:31:26.447Z,98172.16
2023-11-05T01:34:29.458Z,98185.25
2023-11-05T01:37:32.656Z,98170.50
2023-11-05T01:40:35.369Z,98163.50
2023-11-05T01:43:38.658Z,98160.88
2023-11-05T01:46:41.430Z,98147.88
2023-11-05T01:49:44.829Z,98138.34
2023-11-05T01:52:49.885Z,98120.19
2023-11-05T01:55:56.043Z,98115.78
2023-11-05T01:58:58.744Z,98110.56
2023-11-05T02:02:02.909Z,98114.03
2023-11-05T02:05:06.440Z,98117.50
2023-11-05T02:08:09.583Z,98116.72
2023-11-05T02:11:12.488Z,98114.06
2023-11-05T02:14:17.104Z,98115.84
2023-11-05T02:17:22.288Z,98108.88
2023-11-05T02:20:25.595Z,98116.66
2023-11-05T02:23:28.977Z,98112.31
2023-11-05T02:26:31.923Z,98113.22
2023-11-05T02:29:34.819Z,98112.38
2023-11-05T02:32:37.952Z,98121.06
2023-11-05T02:35:40.752Z,98108.03
2023-11-05T02:38:43.696Z,98103.66
2023-11-05T02:41:46.615Z,98101.03
2023-11-05T02:44:50.986Z,98104.56
2023-11-05T02:47:54.087Z,98101.09
2023-11-05T02:50:57.040Z,98108.94
2023-11-05T02:54:00.553Z,98105.44
2023-11-05T02:57:03.432Z,98111.50
2023-11-05T03:00:07.997Z,98103.69
2023-11-05T03:03:12.929Z,98094.13
2023-11-05T03:06:16.032Z,98084.56
2023-11-05T03:09:22.257Z,98074.16
2023-11-05T03:12:25.275Z,98078.50
2023-11-05T03:15:28.195Z,98070.69
2023-11-05T03:18:31.156Z,98060.25
2023-11-05T03:21:34.300Z,98048.09
2023-11-05T03:24:37.343Z,98031.59
2023-11-05T03:27:40.167Z,98028.09
2023-11-05T03:30:43.767Z,98015.91
2023-11-05T03:33:47.037Z,98009.84
2023-11-05T03:36:49.838Z,98019.37
2023-11-05T03:39:52.786Z,98011.59
2023-11-05T03:42:55.682Z,98015.06
2023-11-05T03:45:58.523Z,98020.28
2023-11-05T03:49:01.391Z,98020.28
2023-11-05T03:52:04.739Z,98022.00
2023-11-05T03:55:08.121Z,98015.06
2023-11-05T03:58:13.725Z,98009.84
2023-11-05T04:01:18.944Z,97999.38
2023-11-05T04:04:22.210Z,97989.84
2023-11-05T04:07:25.111Z,97982.91
2023-11-05T04:10:29.672Z,97962.06
2023-11-05T04:13:33.406Z,97972.44
2023-11-05T04:16:37.047Z,97959.41
2023-11-05T04:19:40.351Z,97952.47
2023-11-05T04:22:46.463Z,97947.25
2023-11-05T04:25:49.370Z,97916.81
2023-11-05T04:28:52.437Z,97913.34
2023-11-05T04:31:57.201Z,97909.00
2023-11-05T04:35:00.866Z,97896.81
2023-11-05T04:38:03.739Z,97889.87
2023-11-05T04:41:07.063Z,97891.59
2023-11-05T04:44:09.750Z,97889.00
2023-11-05T04:47:12.868Z,97877.66
2023-11-05T04:50:15.676Z,97863.75
2023-11-05T04:53:18.856Z,97856.75
2023-11-05T04:56:21.501Z,97852.44
2023-11-05T04:59:24.560Z,97849.84
2023-11-05T05:02:27.072Z,97841.12
2023-11-05T05:05:30.357Z,97832.44
2023-11-05T05:08:33.080Z,97832.47
2023-11-05T05:11:36.276Z,97838.53
2023-11-05T05:14:39.310Z,97835.97
2023-11-05T05:17:42.666Z,97845.53
2023-11-05T05:20:45.356Z,97841.19
2023-11-05T05:23:48.438Z,97845.50
2023-11-05T05:26:51.003Z,97865.53
2023-11-05T05:29:54.439Z,97859.44
2023-11-05T05:32:58.072Z,97860.31
2023-11-05T05:36:01.405Z,97849.03
2023-11-05T05:39:04.318Z,97835.06
2023-11-05T05:42:07.827Z,97835.91
2023-11-05T05:45:11.055Z,97843.75
2023-11-05T05:48:14.267Z,97842.03
2023-11-05T05:51:18.625Z,97836.78
2023-11-05T05:54:22.408Z,97834.19
2023-11-05T05:57:26.021Z,97830.75
2023-11-05T06:00:29.355Z,97820.31
2023-11-05T06:03:33.469Z,97810.75
2023-11-05T06:06:37.899Z,97779.44
2023-11-05T06:09:40.753Z,97736.81
2023-11-05T06:12:43.793Z,97743.88
2023-11-05T06:15:47.236Z,97756.94
2023-11-05T06:18:50.185Z,97774.34
2023-11-05T06:21:53.066Z,97774.31
2023-11-05T06:24:55.896Z,97770.00
2023-11-05T06:27:58.744Z,97781.31
2023-11-05T06:31:01.698Z,97791.66
2023-11-05T06:34:04.815Z,97770.84
2023-11-05T06:37:07.745Z,97747.38
2023-11-05T06:40:11.612Z,97690.00
2023-11-05T06:43:14.666Z,97684.75
2023-11-05T06:46:17.720Z,97689.03
2023-11-05T06:49:20.615Z,97670.81
2023-11-05T06:52:23.573Z,97656.88
2023-11-05T06:55:26.443Z,97650.81
2023-11-05T06:58:29.582Z,97653.44
2023-11-05T07:01:32.536Z,97648.28
2023-11-05T07:04:36.714Z,97642.16
2023-11-05T07:07:39.665Z,97610.81
2023-11-05T07:10:42.742Z,97595.16
2023-11-05T07:13:46.821Z,97589.88
2023-11-05T07:16:50.192Z,97583.69
2023-11-05T07:19:54.144Z,97566.34
2023-11-05T07:22:58.438Z,97569.81
2023-11-05T07:26:01.302Z,97578.44
2023-11-05T07:29:23.079Z,97585.44
2023-11-05T07:32:26.255Z,97579.22
2023-11-05T07:35:29.310Z,97571.44
2023-11-05T07:38:32.279Z,97572.31
2023-11-05T07:41:35.558Z,97561.03
2023-11-05T07:44:38.313Z,97542.66
2023-11-05T07:47:41.171Z,97550.44
2023-11-05T07:50:44.109Z,97544.41
2023-11-05T07:53:47.011Z,97534.94
2023-11-05T07:56:54.355Z,97533.22
2023-11-05T07:59:57.316Z,97537.50
2023-11-05T08:03:02.177Z,97531.47
2023-11-05T08:06:05.538Z,97538.41
2023-11-05T08:09:08.492Z,97538.38
2023-11-05T08:12:11.447Z,97532.16
2023-11-05T08:15:15.063Z,97523.47
2023-11-05T08:18:18.091Z,97524.44
2023-11-05T08:21:23.040Z,97524.44
2023-11-05T08:24:25.938Z,97527.88
2023-11-05T08:27:30.985Z,97533.06
2023-11-05T08:30:34.132Z,97552.13
2023-11-05T08:33:37.078Z,97546.81
2023-11-05T08:36:40.042Z,97524.19
2023-11-05T08:39:42.963Z,97519.78
2023-11-05T08:42:48.966Z,97514.53
2023-11-05T08:45:52.296Z,97489.28
2023-11-05T08:48:55.711Z,97486.72
2023-11-05T08:51:59.331Z,97495.38
2023-11-05T08:55:06.934Z,97491.13
2023-11-05T08:58:09.910Z,97476.25
2023-11-05T09:01:13.420Z,97476.19
2023-11-05T09:04:17.145Z,97486.69
2023-11-05T09:07:20.261Z,97463.91
2023-11-05T09:10:26.939Z,97470.94
2023-11-05T09:13:30.010Z,97460.53
2023-11-05T09:16:32.940Z,97477.09
2023-11-05T09:19:36.774Z,97485.66
2023-11-05T09:22:39.956Z,97499.69
2023-11-05T09:25:42.917Z,97545.78
2023-11-05T09:28:45.745Z,97588.47
2023-11-05T09:31:51.674Z,97611.94
2023-11-05T09:34:54.921Z,97589.25
2023-11-05T09:37:58.002Z,97530.63
2023-11-05T09:41:02.212Z,97489.75
2023-11-05T09:44:07.020Z,97451.47
2023-11-05T09:47:12.384Z,97417.53
2023-11-05T09:50:15.393Z,97414.84
2023-11-05T09:53:19.085Z,97424.25
2023-11-05T09:56:22.540Z,97387.75
2023-11-05T09:59:25.441Z,97353.00
2023-11-05T10:03:01.417Z,97367.00
2023-11-05T10:06:05.504Z,97356.31
2023-11-05T10:09:08.824Z,97285.03
2023-11-05T10:12:12.057Z,97258.13
2023-11-05T10:15:15.157Z,97307.88
2023-11-05T10:18:20.197Z,97366.09
2023-11-05T10:21:37.434Z,97414.00
2023-11-05T10:24:41.307Z,97396.78
2023-11-05T10:27:43.816Z,97322.06
2023-11-05T10:30:56.499Z,97374.38
2023-11-05T10:34:04.569Z,97332.56
2023-11-05T10:37:08.234Z,97351.81
2023-11-05T10:40:16.041Z,97354.13
2023-11-05T10:43:26.287Z,97393.28
2023-11-05T10:46:32.874Z,97363.78
2023-11-05T10:49:37.419Z,97359.62
2023-11-05T10:52:46.425Z,97372.56
2023-11-05T10:55:52.717Z,97381.13
2023-11-05T10:58:57.202Z,97386.16
2023-11-05T11:02:01.271Z,97388.03
2023-11-05T11:05:05.828Z,97408.91
2023-11-05T11:08:13.171Z,97384.59
2023-11-05T11:11:16.929Z,97408.87
2023-11-05T11:14:21.122Z,97386.22
2023-11-05T11:17:33.547Z,97337.50
2023-11-05T11:20:39.187Z,97360.03
2023-11-05T11:23:42.051Z,97368.72
2023-11-05T11:26:45.972Z,97357.38
2023-11-05T11:29:48.766Z,97372.25
2023-11-05T11:32:52.198Z,97381.75
2023-11-05T11:35:55.220Z,97416.53
2023-11-05T11:38:58.558Z,97439.94
2023-11-05T11:42:01.710Z,97458.25
2023-11-05T11:45:08.383Z,97451.25
2023-11-05T11:48:11.822Z,97441.72
2023-11-05T11:51:16.956Z,97438.03
2023-11-05T11:54:19.895Z,97440.63
2023-11-05T11:57:23.954Z,97450.31
2023-11-05T12:00:26.745Z,97468.34
2023-11-05T12:03:32.846Z,97452.78
2023-11-05T12:06:39.775Z,97446.72
2023-11-05T12:09:43.070Z,97460.47
2023-11-05T12:12:47.967Z,97459.53
2023-11-05T12:15:51.351Z,97462.69
2023-11-05T12:18:54.570Z,97469.66
2023-11-05T12:21:58.590Z,97457.22
2023-11-05T12:25:02.849Z,97458.00
2023-11-05T12:28:07.765Z,97460.34
2023-11-05T12:31:10.615Z,97477.81
2023-11-05T12:34:14.376Z,97488.25
2023-11-05T12:37:17.090Z,97491.63
2023-11-05T12:40:20.319Z,97493.94
2023-11-05T12:43:25.031Z,97513.53
2023-11-05T12:46:28.658Z,97524.09
2023-11-05T12:49:31.480Z,97526.00
2023-11-05T12:52:41.956Z,97539.69
2023-11-05T12:55:45.338Z,97544.31
2023-11-05T12:58:50.791Z,97541.69
2023-11-05T13:02:02.781Z,97552.13
2023-11-05T13:05:08.864Z,97559.09
2023-11-05T13:08:12.498Z,97557.28
2023-11-05T13:11:18.971Z,97561.56
2023-11-05T13:14:25.764Z,97575.50
2023-11-05T13:17:30.537Z,97568.09
2023-11-05T13:20:33.812Z,97581.12
2023-11-05T13:23:37.112Z,97577.66
2023-11-05T13:26:40.041Z,97592.78
2023-11-05T13:29:46.064Z,97621.75
2023-11-05T13:32:49.331Z,97643.84
2023-11-05T13:35:52.664Z,97661.81
2023-11-05T13:43:11.232Z,97686.94
2023-11-05T13:46:18.303Z,97701.72
2023-11-05T13:49:20.973Z,97703.09
2023-11-05T13:52:24.220Z,97708.56
2023-11-05T13:55:26.999Z,97709.81
2023-11-05T13:58:30.333Z,97716.03
2023-11-05T14:01:35.171Z,97771.34
2023-11-05T14:04:38.831Z,97773.09
2023-11-05T14:07:50.381Z,97784.44
2023-11-05T14:10:54.033Z,97786.25
2023-11-05T14:13:59.864Z,97791.72
2023-11-05T14:17:03.442Z,97807.50
2023-11-05T14:20:11.761Z,97822.59
2023-11-05T14:23:23.301Z,97821.50
2023-11-05T14:26:26.622Z,97820.16
2023-11-05T14:29:35.547Z,97828.78
2023-11-05T14:32:39.914Z,97841.31
2023-11-05T14:35:46.228Z,97852.53
2023-11-05T14:38:53.335Z,97851.94
2023-11-05T14:41:56.736Z,97848.47
2023-11-05T14:45:04.841Z,97845.03
2023-11-05T14:48:14.679Z,97857.09
2023-11-05T14:51:33.626Z,97864.75
2023-11-05T14:54:38.478Z,97875.56
2023-11-05T14:57:42.405Z,97869.53
2023-11-05T15:00:47.201Z,97877.53
2023-11-05T15:03:52.329Z,97891.59
2023-11-05T15:06:56.991Z,97895.09
2023-11-05T15:10:02.297Z,97913.41
2023-11-05T15:13:08.437Z,97912.50
2023-11-05T15:16:12.043Z,97903.16
2023-11-05T15:19:15.825Z,97899.84
2023-11-05T15:22:19.784Z,97901.50
2023-11-05T15:25:25.081Z,97903.38
2023-11-05T15:28:29.486Z,97912.22
2023-11-05T15:31:36.496Z,97920.16
2023-11-05T15:34:50.163Z,97935.00
2023-11-05T15:38:00.647Z,97949.94
2023-11-05T15:47:07.957Z,97970.94
2023-11-05T15:50:42.287Z,97971.03
2023-11-05T15:53:51.674Z,97989.41
2023-11-05T15:57:27.270Z,97988.53
2023-11-05T16:10:27.306Z,98017.22
2023-11-05T16:13:38.651Z,98024.22
2023-11-05T16:16:49.203Z,98026.00
2023-11-05T16:20:07.438Z,98026.87
2023-11-05T16:23:29.201Z,98036.44
2023-11-05T16:31:04.088Z,98040.75
2023-11-05T16:31:54.773Z,98041.59
2023-11-05T16:35:06.995Z,98052.06
2023-11-05T16:38:12.607Z,98045.03
2023-11-05T16:41:17.395Z,98052.63
2023-11-05T16:44:20.499Z,98058.91
2023-11-05T16:47:25.106Z,98056.31
2023-11-05T16:50:27.828Z,98072.91
2023-11-05T16:53:33.414Z,98082.56
2023-11-05T16:56:35.933Z,98091.19
2023-11-05T16:59:39.745Z,98100.81
2023-11-05T17:02:42.631Z,98113.06
2023-11-05T17:05:46.192Z,98117.44
2023-11-05T17:08:48.889Z,98116.56
2023-11-05T17:11:52.644Z,98120.94
2023-11-05T17:15:02.767Z,98123.56
2023-11-05T17:18:14.847Z,98134.00
2023-11-05T17:21:20.407Z,98135.75
2023-11-05T17:24:23.702Z,98143.59
2023-11-05T17:27:27.683Z,98148.84
2023-11-05T17:30:31.852Z,98150.56
2023-11-05T17:33:37.935Z,98156.69
2023-11-05T17:36:41.676Z,98153.19
2023-11-05T17:39:44.416Z,98151.47
2023-11-05T17:42:47.681Z,98158.44
2023-11-05T17:45:52.975Z,98159.28
2023-11-05T17:48:58.243Z,98162.78
2023-11-05T17:52:00.885Z,98158.44
2023-11-05T17:55:06.185Z,98169.75
2023-11-05T17:58:08.809Z,98161.94
2023-11-05T18:01:15.352Z,98166.28
2023-11-05T18:04:18.900Z,98174.09
2023-11-05T18:07:21.974Z,98177.56
2023-11-05T18:10:42.810Z,98185.44
2023-11-05T18:13:53.455Z,98188.91
2023-11-05T18:16:56.459Z,98196.72
2023-11-05T18:20:00.765Z,98193.25
2023-11-05T18:23:03.910Z,98201.09
2023-11-05T18:26:07.035Z,98211.50
2023-11-05T18:29:10.048Z,98209.78
2023-11-05T18:32:12.922Z,98225.44
2023-11-05T18:35:16.008Z,98232.41
2023-11-05T18:38:19.338Z,98248.03
2023-11-05T18:41:22.242Z,98253.25
2023-11-05T18:44:25.435Z,98251.50
2023-11-05T18:47:28.791Z,98266.31
2023-11-05T18:50:31.750Z,98285.44
2023-11-05T18:53:35.433Z,98285.44
2023-11-05T18:56:38.445Z,98290.66
2023-11-05T18:59:41.376Z,98295.00
2023-11-05T19:02:45.233Z,98301.06
2023-11-05T19:05:48.327Z,98304.56
2023-11-05T19:08:51.178Z,98318.47
2023-11-05T19:11:54.824Z,98326.31
2023-11-05T19:14:58.595Z,98336.72
2023-11-05T19:18:02.487Z,98340.22
2023-11-05T19:21:05.717Z,98351.47
2023-11-05T19:24:08.754Z,98366.25
2023-11-05T19:27:11.899Z,98374.94
2023-11-05T19:30:16.384Z,98379.28
2023-11-05T19:33:20.488Z,98376.69
2023-11-05T19:36:26.424Z,98387.94
2023-11-05T19:39:30.488Z,98393.19
2023-11-05T19:42:34.995Z,98401.00
2023-11-05T19:45:38.193Z,98403.62
2023-11-05T19:48:41.440Z,98416.66
2023-11-05T19:51:44.286Z,98402.75
2023-11-05T19:54:48.426Z,98409.72
2023-11-05T19:58:03.931Z,98398.41
2023-11-05T20:01:10.797Z,98383.66
2023-11-05T20:04:14.878Z,98403.69
2023-11-05T20:07:17.934Z,98414.97
2023-11-05T20:10:21.308Z,98418.38
2023-11-05T20:13:23.942Z,98434.06
2023-11-05T20:16:27.085Z,98441.88
2023-11-05T20:19:29.897Z,98453.19
2023-11-05T20:22:33.024Z,98470.53
2023-11-05T20:25:36.105Z,98466.19
2023-11-05T20:28:41.442Z,98474.84
2023-11-05T20:31:45.843Z,98479.16
2023-11-05T20:34:49.299Z,98494.78
2023-11-05T20:37:52.053Z,98505.19
2023-11-05T20:40:55.269Z,98516.53
2023-11-05T20:43:58.412Z,98519.09
2023-11-05T20:47:03.476Z,98533.84
2023-11-05T20:50:06.860Z,98532.97
2023-11-05T20:53:10.233Z,98540.78
2023-11-05T20:56:14.200Z,98548.53
2023-11-05T20:59:17.556Z,98544.16
2023-11-05T21:02:20.196Z,98556.34
2023-11-05T21:05:23.475Z,98549.38
2023-11-05T21:08:26.171Z,98553.69
2023-11-05T21:11:31.541Z,98567.53
2023-11-05T21:14:34.216Z,98564.91
2023-11-05T21:17:37.994Z,98588.31
2023-11-05T21:20:40.849Z,98595.34
2023-11-05T21:23:44.030Z,98596.22
2023-11-05T21:26:47.522Z,98590.94
2023-11-05T21:29:50.673Z,98585.78
2023-11-05T21:32:54.518Z,98597.06
2023-11-05T21:35:58.130Z,98597.06
2023-11-05T21:39:03.331Z,98603.19
2023-11-05T21:42:06.488Z,98598.00
2023-11-05T21:45:09.514Z,98604.03
2023-11-05T21:48:12.777Z,98604.84
2023-11-05T21:51:15.532Z,98598.81
2023-11-05T21:54:20.040Z,98605.78
2023-11-05T21:57:22.776Z,98607.50
2023-11-05T22:00:25.927Z,98615.53
2023-11-05T22:03:28.832Z,98619.16
2023-11-05T22:06:32.061Z,98620.84
2023-11-05T22:09:35.184Z,98640.50
2023-11-05T22:12:38.078Z,98643.75
2023-11-05T22:15:40.911Z,98649.19
2023-11-05T22:18:43.879Z,98663.84
2023-11-05T22:21:48.125Z,98664.53
2023-11-05T22:24:52.989Z,98657.53
2023-11-05T22:27:55.896Z,98669.69
2023-11-05T22:30:58.829Z,98669.13
2023-11-05T22:34:02.878Z,98676.84
2023-11-05T22:37:07.000Z,98676.84
2023-11-05T22:40:12.139Z,98688.00
2023-11-05T22:43:15.141Z,98690.59
2023-11-05T22:46:18.167Z,98705.34
2023-11-05T22:49:25.144Z,98704.53
2023-11-05T22:52:28.533Z,98716.00
2023-11-05T22:55:31.406Z,98726.59
2023-11-05T22:58:34.313Z,98728.25
2023-11-05T23:01:37.966Z,98735.19
2023-11-05T23:04:40.941Z,98739.38
2023-11-05T23:07:44.784Z,98754.97
2023-11-05T23:10:47.796Z,98748.78
2023-11-05T23:13:50.606Z,98751.34
2023-11-05T23:16:53.666Z,98758.19
2023-11-05T23:19:57.007Z,98764.25
2023-11-05T23:23:00.216Z,98780.72
2023-11-05T23:26:03.180Z,98801.53
2023-11-05T23:29:06.217Z,98797.97
2023-11-05T23:32:11.369Z,98806.69
2023-11-05T23:35:14.472Z,98810.97
2023-11-05T23:38:17.619Z,98808.34
2023-11-05T23:41:22.476Z,98810.06
2023-11-05T23:44:25.363Z,98825.59
2023-11-05T23:47:28.321Z,98822.97
2023-11-05T23:50:31.216Z,98826.47
2023-11-05T23:53:34.043Z,98829.97
2023-11-05T23:56:36.905Z,98838.97
2023-11-05T23:59:40.101Z,98837.47
